Terminal Aerodrome Forecast
Issued by NWS

Home | Current Version | Previous Version | Text Only | Print | Product List | Glossary Off
Versions: 1 2 3 4 5 6 7 8 9 10 11 12 13 14 15 16 17 18

000
FTUS43 KTOP 210500
TAFMHK
TAF
KMHK 210520Z 2106/2206 19012KT P6SM SCT150 SCT300
     FM211400 20015G22KT P6SM FEW060 SCT300
     FM220000 19010KT P6SM SCT300=

USA.gov is the U.S. government's official web portal to all federal, state and local government web resources and services.